sensor_id;sensor_type;location;lat;lon;timestamp;P1;durP1;ratioP1;P2;durP2;ratioP2
18576;SDS011;9418;52.694;13.294;2023-06-26T00:01:04;11.10;;;8.53;;
18576;SDS011;9418;52.694;13.294;2023-06-26T00:03:31;9.60;;;8.57;;
18576;SDS011;9418;52.694;13.294;2023-06-26T00:05:57;10.20;;;7.90;;
18576;SDS011;9418;52.694;13.294;2023-06-26T00:08:25;11.53;;;8.87;;
18576;SDS011;9418;52.694;13.294;2023-06-26T00:10:52;9.67;;;8.67;;
18576;SDS011;9418;52.694;13.294;2023-06-26T00:13:20;10.03;;;9.03;;
18576;SDS011;9418;52.694;13.294;2023-06-26T00:15:46;9.87;;;8.97;;
18576;SDS011;9418;52.694;13.294;2023-06-26T00:18:13;8.57;;;7.67;;
18576;SDS011;9418;52.694;13.294;2023-06-26T00:20:39;9.93;;;8.57;;
18576;SDS011;9418;52.694;13.294;2023-06-26T00:23:06;10.83;;;8.57;;
18576;SDS011;9418;52.694;13.294;2023-06-26T00:25:32;11.23;;;9.50;;
18576;SDS011;9418;52.694;13.294;2023-06-26T00:27:59;11.50;;;8.70;;
18576;SDS011;9418;52.694;13.294;2023-06-26T00:30:27;9.77;;;8.57;;
18576;SDS011;9418;52.694;13.294;2023-06-26T00:32:54;9.97;;;9.03;;
18576;SDS011;9418;52.694;13.294;2023-06-26T00:35:20;11.17;;;10.00;;
18576;SDS011;9418;52.694;13.294;2023-06-26T00:37:47;11.03;;;10.03;;
18576;SDS011;9418;52.694;13.294;2023-06-26T00:40:14;15.80;;;9.60;;
18576;SDS011;9418;52.694;13.294;2023-06-26T00:42:41;10.30;;;9.30;;
18576;SDS011;9418;52.694;13.294;2023-06-26T00:45:08;11.03;;;8.90;;
18576;SDS011;9418;52.694;13.294;2023-06-26T00:47:36;15.50;;;9.40;;
18576;SDS011;9418;52.694;13.294;2023-06-26T00:50:03;13.50;;;8.83;;
18576;SDS011;9418;52.694;13.294;2023-06-26T00:52:30;12.70;;;9.00;;
18576;SDS011;9418;52.694;13.294;2023-06-26T00:54:57;10.40;;;8.80;;
18576;SDS011;9418;52.694;13.294;2023-06-26T00:57:24;10.70;;;9.70;;
18576;SDS011;9418;52.694;13.294;2023-06-26T00:59:51;12.33;;;8.97;;
18576;SDS011;9418;52.694;13.294;2023-06-26T01:02:17;13.40;;;8.77;;
18576;SDS011;9418;52.694;13.294;2023-06-26T01:04:46;11.23;;;8.73;;
18576;SDS011;9418;52.694;13.294;2023-06-26T01:07:14;12.00;;;10.10;;
18576;SDS011;9418;52.694;13.294;2023-06-26T01:09:43;10.43;;;8.47;;
18576;SDS011;9418;52.694;13.294;2023-06-26T01:12:11;9.77;;;8.73;;
18576;SDS011;9418;52.694;13.294;2023-06-26T01:14:38;11.80;;;8.63;;
18576;SDS011;9418;52.694;13.294;2023-06-26T01:17:05;12.50;;;8.80;;
18576;SDS011;9418;52.694;13.294;2023-06-26T01:19:32;11.87;;;9.50;;
18576;SDS011;9418;52.694;13.294;2023-06-26T01:22:15;9.77;;;8.77;;
18576;SDS011;9418;52.694;13.294;2023-06-26T01:24:48;9.97;;;8.97;;
18576;SDS011;9418;52.694;13.294;2023-06-26T01:27:27;11.60;;;9.20;;
18576;SDS011;9418;52.694;13.294;2023-06-26T01:29:57;9.70;;;8.80;;
18576;SDS011;9418;52.694;13.294;2023-06-26T01:32:26;8.80;;;8.10;;
18576;SDS011;9418;52.694;13.294;2023-06-26T01:34:53;8.67;;;7.93;;
18576;SDS011;9418;52.694;13.294;2023-06-26T01:37:20;9.43;;;8.30;;
18576;SDS011;9418;52.694;13.294;2023-06-26T01:39:46;9.87;;;8.80;;
18576;SDS011;9418;52.694;13.294;2023-06-26T01:42:13;10.40;;;8.30;;
18576;SDS011;9418;52.694;13.294;2023-06-26T01:44:41;10.83;;;8.67;;
18576;SDS011;9418;52.694;13.294;2023-06-26T01:47:11;10.53;;;9.57;;
18576;SDS011;9418;52.694;13.294;2023-06-26T01:49:50;10.07;;;9.17;;
18576;SDS011;9418;52.694;13.294;2023-06-26T01:52:25;9.50;;;8.60;;
18576;SDS011;9418;52.694;13.294;2023-06-26T01:54:55;9.57;;;8.57;;
18576;SDS011;9418;52.694;13.294;2023-06-26T01:57:27;11.87;;;8.63;;
18576;SDS011;9418;52.694;13.294;2023-06-26T01:59:57;10.00;;;9.10;;
18576;SDS011;9418;52.694;13.294;2023-06-26T02:02:25;10.40;;;8.73;;
18576;SDS011;9418;52.694;13.294;2023-06-26T02:04:54;12.77;;;8.67;;
18576;SDS011;9418;52.694;13.294;2023-06-26T02:07:20;10.03;;;9.03;;
18576;SDS011;9418;52.694;13.294;2023-06-26T02:09:47;14.70;;;9.30;;
18576;SDS011;9418;52.694;13.294;2023-06-26T02:12:13;10.00;;;8.97;;
18576;SDS011;9418;52.694;13.294;2023-06-26T02:14:40;9.57;;;8.63;;
18576;SDS011;9418;52.694;13.294;2023-06-26T02:17:08;9.70;;;8.80;;
18576;SDS011;9418;52.694;13.294;2023-06-26T02:19:34;10.23;;;9.17;;
18576;SDS011;9418;52.694;13.294;2023-06-26T02:22:01;10.63;;;8.87;;
18576;SDS011;9418;52.694;13.294;2023-06-26T02:24:27;10.13;;;9.20;;
18576;SDS011;9418;52.694;13.294;2023-06-26T02:26:55;9.97;;;8.93;;
18576;SDS011;9418;52.694;13.294;2023-06-26T02:29:22;12.03;;;9.13;;
18576;SDS011;9418;52.694;13.294;2023-06-26T02:31:48;8.60;;;7.90;;
18576;SDS011;9418;52.694;13.294;2023-06-26T02:34:16;9.93;;;8.83;;
18576;SDS011;9418;52.694;13.294;2023-06-26T02:36:43;11.20;;;8.10;;
18576;SDS011;9418;52.694;13.294;2023-06-26T02:39:10;9.70;;;8.70;;
18576;SDS011;9418;52.694;13.294;2023-06-26T02:41:36;9.90;;;9.00;;
18576;SDS011;9418;52.694;13.294;2023-06-26T02:44:03;10.27;;;9.20;;
18576;SDS011;9418;52.694;13.294;2023-06-26T02:46:30;10.50;;;8.80;;
18576;SDS011;9418;52.694;13.294;2023-06-26T02:48:56;10.50;;;9.33;;
18576;SDS011;9418;52.694;13.294;2023-06-26T02:51:24;10.63;;;9.50;;
18576;SDS011;9418;52.694;13.294;2023-06-26T02:53:51;13.90;;;9.70;;
18576;SDS011;9418;52.694;13.294;2023-06-26T02:56:17;10.80;;;9.80;;
18576;SDS011;9418;52.694;13.294;2023-06-26T02:58:44;10.07;;;9.07;;
18576;SDS011;9418;52.694;13.294;2023-06-26T03:01:10;10.23;;;9.30;;
18576;SDS011;9418;52.694;13.294;2023-06-26T03:03:37;10.63;;;9.53;;
18576;SDS011;9418;52.694;13.294;2023-06-26T03:06:06;11.10;;;9.60;;
18576;SDS011;9418;52.694;13.294;2023-06-26T03:08:35;12.90;;;9.27;;
18576;SDS011;9418;52.694;13.294;2023-06-26T03:11:03;10.03;;;9.13;;
18576;SDS011;9418;52.694;13.294;2023-06-26T03:13:29;10.33;;;9.20;;
18576;SDS011;9418;52.694;13.294;2023-06-26T03:15:56;13.00;;;10.50;;
18576;SDS011;9418;52.694;13.294;2023-06-26T03:18:22;10.23;;;9.23;;
18576;SDS011;9418;52.694;13.294;2023-06-26T03:20:49;9.83;;;8.93;;
18576;SDS011;9418;52.694;13.294;2023-06-26T03:23:15;11.43;;;10.03;;
18576;SDS011;9418;52.694;13.294;2023-06-26T03:25:43;11.73;;;9.63;;
18576;SDS011;9418;52.694;13.294;2023-06-26T03:28:10;10.13;;;9.13;;
18576;SDS011;9418;52.694;13.294;2023-06-26T03:30:36;16.80;;;9.33;;
18576;SDS011;9418;52.694;13.294;2023-06-26T03:33:03;10.03;;;9.03;;
18576;SDS011;9418;52.694;13.294;2023-06-26T03:35:29;13.77;;;9.93;;
18576;SDS011;9418;52.694;13.294;2023-06-26T03:37:56;9.90;;;8.93;;
18576;SDS011;9418;52.694;13.294;2023-06-26T03:40:23;10.93;;;9.83;;
18576;SDS011;9418;52.694;13.294;2023-06-26T03:42:51;11.93;;;10.70;;
18576;SDS011;9418;52.694;13.294;2023-06-26T03:45:17;12.10;;;10.40;;
18576;SDS011;9418;52.694;13.294;2023-06-26T03:47:45;15.50;;;10.30;;
18576;SDS011;9418;52.694;13.294;2023-06-26T03:50:13;11.90;;;10.70;;
18576;SDS011;9418;52.694;13.294;2023-06-26T03:52:40;11.17;;;9.80;;
18576;SDS011;9418;52.694;13.294;2023-06-26T03:55:06;14.30;;;9.40;;
18576;SDS011;9418;52.694;13.294;2023-06-26T03:57:33;14.47;;;11.50;;
18576;SDS011;9418;52.694;13.294;2023-06-26T04:00:02;12.00;;;10.60;;
18576;SDS011;9418;52.694;13.294;2023-06-26T04:02:33;13.90;;;10.77;;
18576;SDS011;9418;52.694;13.294;2023-06-26T04:04:59;10.40;;;9.43;;
18576;SDS011;9418;52.694;13.294;2023-06-26T04:07:26;11.67;;;9.37;;
18576;SDS011;9418;52.694;13.294;2023-06-26T04:09:52;11.10;;;10.00;;
18576;SDS011;9418;52.694;13.294;2023-06-26T04:12:19;13.40;;;9.63;;
18576;SDS011;9418;52.694;13.294;2023-06-26T04:14:45;11.27;;;10.10;;
18576;SDS011;9418;52.694;13.294;2023-06-26T04:17:13;11.43;;;10.43;;
18576;SDS011;9418;52.694;13.294;2023-06-26T04:19:40;12.77;;;9.67;;
18576;SDS011;9418;52.694;13.294;2023-06-26T04:22:06;12.40;;;10.23;;
18576;SDS011;9418;52.694;13.294;2023-06-26T04:24:33;10.90;;;9.80;;
18576;SDS011;9418;52.694;13.294;2023-06-26T04:26:59;13.33;;;10.73;;
18576;SDS011;9418;52.694;13.294;2023-06-26T04:29:26;11.70;;;10.50;;
18576;SDS011;9418;52.694;13.294;2023-06-26T04:31:53;11.43;;;10.07;;
18576;SDS011;9418;52.694;13.294;2023-06-26T04:34:24;10.53;;;9.63;;
18576;SDS011;9418;52.694;13.294;2023-06-26T04:36:50;12.63;;;10.27;;
18576;SDS011;9418;52.694;13.294;2023-06-26T04:39:17;17.00;;;10.30;;
18576;SDS011;9418;52.694;13.294;2023-06-26T04:41:44;12.30;;;10.23;;
18576;SDS011;9418;52.694;13.294;2023-06-26T04:44:11;12.73;;;11.43;;
18576;SDS011;9418;52.694;13.294;2023-06-26T04:46:38;12.90;;;11.57;;
18576;SDS011;9418;52.694;13.294;2023-06-26T04:49:06;12.37;;;11.27;;
18576;SDS011;9418;52.694;13.294;2023-06-26T04:51:34;12.60;;;11.40;;
18576;SDS011;9418;52.694;13.294;2023-06-26T04:54:05;13.47;;;11.20;;
18576;SDS011;9418;52.694;13.294;2023-06-26T04:56:32;14.13;;;11.80;;
18576;SDS011;9418;52.694;13.294;2023-06-26T04:58:58;14.17;;;12.63;;
18576;SDS011;9418;52.694;13.294;2023-06-26T05:01:25;19.10;;;13.67;;
18576;SDS011;9418;52.694;13.294;2023-06-26T05:03:53;15.17;;;12.50;;
18576;SDS011;9418;52.694;13.294;2023-06-26T05:06:20;21.40;;;13.77;;
18576;SDS011;9418;52.694;13.294;2023-06-26T05:08:47;17.00;;;13.93;;
18576;SDS011;9418;52.694;13.294;2023-06-26T05:11:14;20.53;;;13.20;;
18576;SDS011;9418;52.694;13.294;2023-06-26T05:13:41;12.43;;;11.03;;
18576;SDS011;9418;52.694;13.294;2023-06-26T05:16:08;18.70;;;11.30;;
18576;SDS011;9418;52.694;13.294;2023-06-26T05:18:35;21.37;;;12.23;;
18576;SDS011;9418;52.694;13.294;2023-06-26T05:21:02;11.33;;;10.23;;
18576;SDS011;9418;52.694;13.294;2023-06-26T05:23:30;17.03;;;10.50;;
18576;SDS011;9418;52.694;13.294;2023-06-26T05:25:59;16.83;;;11.47;;
18576;SDS011;9418;52.694;13.294;2023-06-26T05:28:30;15.37;;;10.83;;
18576;SDS011;9418;52.694;13.294;2023-06-26T05:30:57;12.73;;;10.63;;
18576;SDS011;9418;52.694;13.294;2023-06-26T05:33:25;14.07;;;10.10;;
18576;SDS011;9418;52.694;13.294;2023-06-26T05:35:53;11.23;;;10.00;;
18576;SDS011;9418;52.694;13.294;2023-06-26T05:38:20;14.67;;;10.00;;
18576;SDS011;9418;52.694;13.294;2023-06-26T05:40:48;12.60;;;10.03;;
18576;SDS011;9418;52.694;13.294;2023-06-26T05:43:17;13.30;;;10.40;;
18576;SDS011;9418;52.694;13.294;2023-06-26T05:45:46;10.53;;;9.43;;
18576;SDS011;9418;52.694;13.294;2023-06-26T05:48:12;11.60;;;10.50;;
18576;SDS011;9418;52.694;13.294;2023-06-26T05:50:39;16.33;;;10.23;;
18576;SDS011;9418;52.694;13.294;2023-06-26T05:53:07;13.70;;;9.60;;
18576;SDS011;9418;52.694;13.294;2023-06-26T05:55:34;10.20;;;9.17;;
18576;SDS011;9418;52.694;13.294;2023-06-26T05:58:01;22.63;;;9.70;;
18576;SDS011;9418;52.694;13.294;2023-06-26T06:00:30;13.57;;;9.40;;
18576;SDS011;9418;52.694;13.294;2023-06-26T06:02:57;12.80;;;9.97;;
18576;SDS011;9418;52.694;13.294;2023-06-26T06:05:24;15.07;;;9.00;;
18576;SDS011;9418;52.694;13.294;2023-06-26T06:07:50;10.23;;;9.30;;
18576;SDS011;9418;52.694;13.294;2023-06-26T06:10:17;10.73;;;8.80;;
18576;SDS011;9418;52.694;13.294;2023-06-26T06:12:43;11.77;;;9.13;;
18576;SDS011;9418;52.694;13.294;2023-06-26T06:15:10;10.40;;;9.10;;
18576;SDS011;9418;52.694;13.294;2023-06-26T06:17:38;12.73;;;8.60;;
18576;SDS011;9418;52.694;13.294;2023-06-26T06:20:05;9.57;;;8.67;;
18576;SDS011;9418;52.694;13.294;2023-06-26T06:22:31;9.13;;;8.20;;
18576;SDS011;9418;52.694;13.294;2023-06-26T06:24:58;12.47;;;8.77;;
18576;SDS011;9418;52.694;13.294;2023-06-26T06:27:25;9.37;;;8.27;;
18576;SDS011;9418;52.694;13.294;2023-06-26T06:29:52;10.77;;;8.77;;
18576;SDS011;9418;52.694;13.294;2023-06-26T06:32:18;17.03;;;8.00;;
18576;SDS011;9418;52.694;13.294;2023-06-26T06:34:46;8.30;;;7.60;;
18576;SDS011;9418;52.694;13.294;2023-06-26T06:37:13;10.30;;;8.03;;
18576;SDS011;9418;52.694;13.294;2023-06-26T06:39:39;8.37;;;7.67;;
18576;SDS011;9418;52.694;13.294;2023-06-26T06:42:06;13.93;;;7.53;;
18576;SDS011;9418;52.694;13.294;2023-06-26T06:44:33;9.43;;;7.50;;
18576;SDS011;9418;52.694;13.294;2023-06-26T06:46:59;8.50;;;7.73;;
18576;SDS011;9418;52.694;13.294;2023-06-26T06:49:26;7.90;;;7.27;;
18576;SDS011;9418;52.694;13.294;2023-06-26T06:51:53;10.73;;;6.90;;
18576;SDS011;9418;52.694;13.294;2023-06-26T06:54:20;8.00;;;7.10;;
18576;SDS011;9418;52.694;13.294;2023-06-26T06:56:47;7.77;;;7.07;;
18576;SDS011;9418;52.694;13.294;2023-06-26T06:59:13;8.50;;;5.93;;
18576;SDS011;9418;52.694;13.294;2023-06-26T07:01:40;6.80;;;6.30;;
18576;SDS011;9418;52.694;13.294;2023-06-26T07:04:06;6.20;;;5.70;;
18576;SDS011;9418;52.694;13.294;2023-06-26T07:06:33;7.27;;;6.60;;
18576;SDS011;9418;52.694;13.294;2023-06-26T07:09:01;6.57;;;6.07;;
18576;SDS011;9418;52.694;13.294;2023-06-26T07:11:27;7.73;;;6.23;;
18576;SDS011;9418;52.694;13.294;2023-06-26T07:13:55;7.30;;;6.60;;
18576;SDS011;9418;52.694;13.294;2023-06-26T07:16:21;6.47;;;5.87;;
18576;SDS011;9418;52.694;13.294;2023-06-26T07:18:48;10.63;;;6.37;;
18576;SDS011;9418;52.694;13.294;2023-06-26T07:21:15;9.93;;;6.60;;
18576;SDS011;9418;52.694;13.294;2023-06-26T07:23:41;8.93;;;5.80;;
18576;SDS011;9418;52.694;13.294;2023-06-26T07:26:09;6.77;;;6.07;;
18576;SDS011;9418;52.694;13.294;2023-06-26T07:28:35;8.83;;;5.90;;
18576;SDS011;9418;52.694;13.294;2023-06-26T07:31:02;7.20;;;5.40;;
18576;SDS011;9418;52.694;13.294;2023-06-26T07:33:29;12.63;;;5.10;;
18576;SDS011;9418;52.694;13.294;2023-06-26T07:35:55;5.90;;;5.40;;
18576;SDS011;9418;52.694;13.294;2023-06-26T07:38:22;17.80;;;5.63;;
18576;SDS011;9418;52.694;13.294;2023-06-26T07:40:48;7.80;;;5.73;;
18576;SDS011;9418;52.694;13.294;2023-06-26T07:43:16;6.33;;;5.83;;
18576;SDS011;9418;52.694;13.294;2023-06-26T07:45:43;10.70;;;6.63;;
18576;SDS011;9418;52.694;13.294;2023-06-26T07:48:10;5.90;;;5.40;;
18576;SDS011;9418;52.694;13.294;2023-06-26T07:50:36;6.27;;;5.67;;
18576;SDS011;9418;52.694;13.294;2023-06-26T07:53:03;6.20;;;5.70;;
18576;SDS011;9418;52.694;13.294;2023-06-26T07:55:30;6.50;;;5.90;;
18576;SDS011;9418;52.694;13.294;2023-06-26T07:57:57;6.73;;;6.13;;
18576;SDS011;9418;52.694;13.294;2023-06-26T08:00:25;15.90;;;6.80;;
18576;SDS011;9418;52.694;13.294;2023-06-26T08:02:51;11.70;;;6.00;;
18576;SDS011;9418;52.694;13.294;2023-06-26T08:05:18;8.33;;;5.17;;
18576;SDS011;9418;52.694;13.294;2023-06-26T08:07:44;10.47;;;5.87;;
18576;SDS011;9418;52.694;13.294;2023-06-26T08:10:11;6.23;;;5.30;;
18576;SDS011;9418;52.694;13.294;2023-06-26T08:12:38;5.30;;;4.80;;
18576;SDS011;9418;52.694;13.294;2023-06-26T08:15:07;5.80;;;5.30;;
18576;SDS011;9418;52.694;13.294;2023-06-26T08:17:35;8.97;;;5.60;;
18576;SDS011;9418;52.694;13.294;2023-06-26T08:20:03;6.23;;;5.40;;
18576;SDS011;9418;52.694;13.294;2023-06-26T08:22:30;7.27;;;5.30;;
18576;SDS011;9418;52.694;13.294;2023-06-26T08:24:57;7.70;;;4.80;;
18576;SDS011;9418;52.694;13.294;2023-06-26T08:27:23;5.93;;;5.33;;
18576;SDS011;9418;52.694;13.294;2023-06-26T08:29:50;5.60;;;5.10;;
18576;SDS011;9418;52.694;13.294;2023-06-26T08:32:16;5.73;;;5.30;;
18576;SDS011;9418;52.694;13.294;2023-06-26T08:34:44;5.90;;;5.40;;
18576;SDS011;9418;52.694;13.294;2023-06-26T08:37:11;5.47;;;5.03;;
18576;SDS011;9418;52.694;13.294;2023-06-26T08:39:37;5.10;;;4.70;;
18576;SDS011;9418;52.694;13.294;2023-06-26T08:42:04;4.80;;;4.30;;
18576;SDS011;9418;52.694;13.294;2023-06-26T08:44:31;13.63;;;4.60;;
18576;SDS011;9418;52.694;13.294;2023-06-26T08:46:58;8.20;;;5.37;;
18576;SDS011;9418;52.694;13.294;2023-06-26T08:49:28;5.53;;;5.13;;
18576;SDS011;9418;52.694;13.294;2023-06-26T08:52:02;5.00;;;4.50;;
18576;SDS011;9418;52.694;13.294;2023-06-26T08:54:35;5.27;;;4.87;;
18576;SDS011;9418;52.694;13.294;2023-06-26T08:57:06;5.80;;;5.33;;
18576;SDS011;9418;52.694;13.294;2023-06-26T08:59:33;6.47;;;4.20;;
18576;SDS011;9418;52.694;13.294;2023-06-26T09:02:00;4.57;;;4.10;;
18576;SDS011;9418;52.694;13.294;2023-06-26T09:04:27;5.80;;;5.23;;
18576;SDS011;9418;52.694;13.294;2023-06-26T09:06:54;7.17;;;4.90;;
18576;SDS011;9418;52.694;13.294;2023-06-26T09:09:22;6.87;;;5.37;;
18576;SDS011;9418;52.694;13.294;2023-06-26T09:11:49;5.30;;;4.80;;
18576;SDS011;9418;52.694;13.294;2023-06-26T09:14:15;6.00;;;4.60;;
18576;SDS011;9418;52.694;13.294;2023-06-26T09:16:42;5.67;;;5.00;;
18576;SDS011;9418;52.694;13.294;2023-06-26T09:19:09;5.53;;;4.90;;
18576;SDS011;9418;52.694;13.294;2023-06-26T09:21:37;6.13;;;4.00;;
18576;SDS011;9418;52.694;13.294;2023-06-26T09:24:05;9.00;;;4.33;;
18576;SDS011;9418;52.694;13.294;2023-06-26T09:26:34;4.60;;;3.93;;
18576;SDS011;9418;52.694;13.294;2023-06-26T09:29:02;5.03;;;4.23;;
18576;SDS011;9418;52.694;13.294;2023-06-26T09:31:28;4.50;;;4.13;;
18576;SDS011;9418;52.694;13.294;2023-06-26T09:33:55;14.07;;;4.80;;
18576;SDS011;9418;52.694;13.294;2023-06-26T09:36:23;5.17;;;4.67;;
18576;SDS011;9418;52.694;13.294;2023-06-26T09:38:52;4.67;;;4.17;;
18576;SDS011;9418;52.694;13.294;2023-06-26T09:41:19;4.50;;;4.20;;
18576;SDS011;9418;52.694;13.294;2023-06-26T09:43:47;7.37;;;4.30;;
18576;SDS011;9418;52.694;13.294;2023-06-26T09:46:15;4.70;;;4.40;;
18576;SDS011;9418;52.694;13.294;2023-06-26T09:48:42;4.63;;;4.23;;
18576;SDS011;9418;52.694;13.294;2023-06-26T09:51:09;5.93;;;3.93;;
18576;SDS011;9418;52.694;13.294;2023-06-26T09:53:36;4.23;;;3.90;;
18576;SDS011;9418;52.694;13.294;2023-06-26T09:56:04;7.13;;;4.77;;
18576;SDS011;9418;52.694;13.294;2023-06-26T09:58:32;5.90;;;3.70;;
18576;SDS011;9418;52.694;13.294;2023-06-26T10:01:00;5.27;;;4.27;;
18576;SDS011;9418;52.694;13.294;2023-06-26T10:03:27;3.87;;;3.67;;
18576;SDS011;9418;52.694;13.294;2023-06-26T10:05:53;5.10;;;4.70;;
18576;SDS011;9418;52.694;13.294;2023-06-26T10:08:21;8.10;;;4.27;;
18576;SDS011;9418;52.694;13.294;2023-06-26T10:10:48;4.60;;;4.27;;
18576;SDS011;9418;52.694;13.294;2023-06-26T10:13:16;5.80;;;3.80;;
18576;SDS011;9418;52.694;13.294;2023-06-26T10:15:47;4.47;;;4.17;;
18576;SDS011;9418;52.694;13.294;2023-06-26T10:18:18;6.00;;;4.33;;
18576;SDS011;9418;52.694;13.294;2023-06-26T10:20:47;4.27;;;3.90;;
18576;SDS011;9418;52.694;13.294;2023-06-26T10:23:16;4.83;;;4.50;;
18576;SDS011;9418;52.694;13.294;2023-06-26T10:25:45;5.40;;;4.20;;
18576;SDS011;9418;52.694;13.294;2023-06-26T10:28:17;4.70;;;4.20;;
18576;SDS011;9418;52.694;13.294;2023-06-26T10:30:46;4.77;;;4.10;;
18576;SDS011;9418;52.694;13.294;2023-06-26T10:33:16;6.57;;;4.27;;
18576;SDS011;9418;52.694;13.294;2023-06-26T10:35:45;6.27;;;4.27;;
18576;SDS011;9418;52.694;13.294;2023-06-26T10:38:12;4.30;;;4.10;;
18576;SDS011;9418;52.694;13.294;2023-06-26T10:40:42;11.93;;;3.90;;
18576;SDS011;9418;52.694;13.294;2023-06-26T10:43:11;5.33;;;3.80;;
18576;SDS011;9418;52.694;13.294;2023-06-26T10:45:43;6.70;;;3.53;;
18576;SDS011;9418;52.694;13.294;2023-06-26T10:48:12;4.13;;;3.80;;
18576;SDS011;9418;52.694;13.294;2023-06-26T10:50:41;4.63;;;4.23;;
18576;SDS011;9418;52.694;13.294;2023-06-26T10:53:08;3.83;;;3.53;;
18576;SDS011;9418;52.694;13.294;2023-06-26T10:55:44;3.90;;;3.60;;
18576;SDS011;9418;52.694;13.294;2023-06-26T10:58:26;4.80;;;3.90;;
18576;SDS011;9418;52.694;13.294;2023-06-26T11:03:46;4.00;;;3.80;;
18576;SDS011;9418;52.694;13.294;2023-06-26T11:06:16;3.90;;;3.70;;
18576;SDS011;9418;52.694;13.294;2023-06-26T11:08:44;4.63;;;4.23;;
18576;SDS011;9418;52.694;13.294;2023-06-26T11:11:12;3.87;;;3.57;;
18576;SDS011;9418;52.694;13.294;2023-06-26T11:13:39;3.90;;;3.67;;
18576;SDS011;9418;52.694;13.294;2023-06-26T11:16:06;3.10;;;2.90;;
18576;SDS011;9418;52.694;13.294;2023-06-26T11:18:32;4.23;;;3.93;;
18576;SDS011;9418;52.694;13.294;2023-06-26T11:21:04;4.23;;;3.93;;
18576;SDS011;9418;52.694;13.294;2023-06-26T11:23:33;8.30;;;3.87;;
18576;SDS011;9418;52.694;13.294;2023-06-26T11:26:14;6.20;;;3.77;;
18576;SDS011;9418;52.694;13.294;2023-06-26T11:28:45;5.37;;;4.10;;
18576;SDS011;9418;52.694;13.294;2023-06-26T11:31:25;4.13;;;3.83;;
18576;SDS011;9418;52.694;13.294;2023-06-26T11:33:55;4.30;;;3.90;;
18576;SDS011;9418;52.694;13.294;2023-06-26T11:36:22;4.23;;;3.93;;
18576;SDS011;9418;52.694;13.294;2023-06-26T11:38:53;5.50;;;3.67;;
18576;SDS011;9418;52.694;13.294;2023-06-26T11:41:21;4.07;;;3.73;;
18576;SDS011;9418;52.694;13.294;2023-06-26T11:43:47;9.80;;;3.87;;
18576;SDS011;9418;52.694;13.294;2023-06-26T11:46:16;4.80;;;4.40;;
18576;SDS011;9418;52.694;13.294;2023-06-26T11:48:43;6.10;;;4.03;;
18576;SDS011;9418;52.694;13.294;2023-06-26T11:51:12;5.00;;;4.50;;
18576;SDS011;9418;52.694;13.294;2023-06-26T11:53:39;4.23;;;3.93;;
18576;SDS011;9418;52.694;13.294;2023-06-26T11:56:09;4.70;;;3.93;;
18576;SDS011;9418;52.694;13.294;2023-06-26T11:58:36;4.67;;;4.17;;
18576;SDS011;9418;52.694;13.294;2023-06-26T12:01:02;9.73;;;4.00;;
18576;SDS011;9418;52.694;13.294;2023-06-26T12:03:29;6.13;;;4.30;;
18576;SDS011;9418;52.694;13.294;2023-06-26T12:05:58;14.00;;;4.23;;
18576;SDS011;9418;52.694;13.294;2023-06-26T12:08:26;3.87;;;3.57;;
18576;SDS011;9418;52.694;13.294;2023-06-26T12:10:52;10.53;;;4.50;;
18576;SDS011;9418;52.694;13.294;2023-06-26T12:13:21;4.13;;;3.83;;
18576;SDS011;9418;52.694;13.294;2023-06-26T12:15:47;4.30;;;4.00;;
18576;SDS011;9418;52.694;13.294;2023-06-26T12:18:15;5.13;;;4.63;;
18576;SDS011;9418;52.694;13.294;2023-06-26T12:20:42;7.43;;;4.70;;
18576;SDS011;9418;52.694;13.294;2023-06-26T12:23:11;5.07;;;4.77;;
18576;SDS011;9418;52.694;13.294;2023-06-26T12:25:38;4.70;;;4.40;;
18576;SDS011;9418;52.694;13.294;2023-06-26T12:28:14;6.67;;;4.93;;
18576;SDS011;9418;52.694;13.294;2023-06-26T12:30:46;4.83;;;4.40;;
18576;SDS011;9418;52.694;13.294;2023-06-26T12:33:13;4.00;;;3.80;;
18576;SDS011;9418;52.694;13.294;2023-06-26T12:35:41;4.93;;;4.63;;
18576;SDS011;9418;52.694;13.294;2023-06-26T12:38:08;4.47;;;4.10;;
18576;SDS011;9418;52.694;13.294;2023-06-26T12:40:35;6.57;;;4.80;;
18576;SDS011;9418;52.694;13.294;2023-06-26T12:43:10;5.47;;;4.90;;
18576;SDS011;9418;52.694;13.294;2023-06-26T12:45:37;4.87;;;4.57;;
18576;SDS011;9418;52.694;13.294;2023-06-26T12:48:11;4.50;;;4.10;;
18576;SDS011;9418;52.694;13.294;2023-06-26T12:50:42;5.70;;;4.57;;
18576;SDS011;9418;52.694;13.294;2023-06-26T12:53:10;4.90;;;4.33;;
18576;SDS011;9418;52.694;13.294;2023-06-26T12:55:37;13.43;;;4.43;;
18576;SDS011;9418;52.694;13.294;2023-06-26T12:58:03;6.67;;;4.47;;
18576;SDS011;9418;52.694;13.294;2023-06-26T13:00:30;5.40;;;4.37;;
18576;SDS011;9418;52.694;13.294;2023-06-26T13:02:56;5.60;;;4.63;;
18576;SDS011;9418;52.694;13.294;2023-06-26T13:05:25;6.70;;;4.63;;
18576;SDS011;9418;52.694;13.294;2023-06-26T13:07:51;4.80;;;4.40;;
18576;SDS011;9418;52.694;13.294;2023-06-26T13:10:18;5.10;;;4.60;;
18576;SDS011;9418;52.694;13.294;2023-06-26T13:12:45;8.77;;;5.07;;
18576;SDS011;9418;52.694;13.294;2023-06-26T13:15:11;4.60;;;4.33;;
18576;SDS011;9418;52.694;13.294;2023-06-26T13:17:38;5.23;;;4.87;;
18576;SDS011;9418;52.694;13.294;2023-06-26T13:20:05;5.57;;;5.07;;
18576;SDS011;9418;52.694;13.294;2023-06-26T13:22:34;5.97;;;4.50;;
18576;SDS011;9418;52.694;13.294;2023-06-26T13:25:01;5.40;;;4.57;;
18576;SDS011;9418;52.694;13.294;2023-06-26T13:27:27;8.93;;;4.47;;
18576;SDS011;9418;52.694;13.294;2023-06-26T13:29:54;8.83;;;5.40;;
18576;SDS011;9418;52.694;13.294;2023-06-26T13:32:20;8.90;;;4.90;;
18576;SDS011;9418;52.694;13.294;2023-06-26T13:34:47;5.87;;;5.47;;
18576;SDS011;9418;52.694;13.294;2023-06-26T13:37:14;5.23;;;4.73;;
18576;SDS011;9418;52.694;13.294;2023-06-26T13:39:41;5.47;;;5.00;;
18576;SDS011;9418;52.694;13.294;2023-06-26T13:42:14;5.03;;;4.70;;
18576;SDS011;9418;52.694;13.294;2023-06-26T13:44:41;5.67;;;5.17;;
18576;SDS011;9418;52.694;13.294;2023-06-26T13:47:07;6.60;;;5.13;;
18576;SDS011;9418;52.694;13.294;2023-06-26T13:49:35;6.03;;;5.50;;
18576;SDS011;9418;52.694;13.294;2023-06-26T13:52:02;5.80;;;5.30;;
18576;SDS011;9418;52.694;13.294;2023-06-26T13:54:29;7.13;;;5.47;;
18576;SDS011;9418;52.694;13.294;2023-06-26T13:56:57;6.33;;;5.83;;
18576;SDS011;9418;52.694;13.294;2023-06-26T13:59:26;6.30;;;5.80;;
18576;SDS011;9418;52.694;13.294;2023-06-26T14:01:53;5.87;;;5.47;;
18576;SDS011;9418;52.694;13.294;2023-06-26T14:04:20;6.60;;;6.00;;
18576;SDS011;9418;52.694;13.294;2023-06-26T14:06:47;8.20;;;5.67;;
18576;SDS011;9418;52.694;13.294;2023-06-26T14:09:13;5.50;;;4.93;;
18576;SDS011;9418;52.694;13.294;2023-06-26T14:11:40;22.43;;;5.97;;
18576;SDS011;9418;52.694;13.294;2023-06-26T14:14:08;25.87;;;6.37;;
18576;SDS011;9418;52.694;13.294;2023-06-26T14:16:35;16.80;;;6.40;;
18576;SDS011;9418;52.694;13.294;2023-06-26T14:19:01;19.83;;;7.07;;
18576;SDS011;9418;52.694;13.294;2023-06-26T14:21:28;22.73;;;7.47;;
18576;SDS011;9418;52.694;13.294;2023-06-26T14:23:54;14.07;;;6.30;;
18576;SDS011;9418;52.694;13.294;2023-06-26T14:26:21;12.70;;;7.13;;
18576;SDS011;9418;52.694;13.294;2023-06-26T14:28:47;17.03;;;6.43;;
18576;SDS011;9418;52.694;13.294;2023-06-26T14:31:15;14.10;;;6.00;;
18576;SDS011;9418;52.694;13.294;2023-06-26T14:33:42;16.20;;;7.10;;
18576;SDS011;9418;52.694;13.294;2023-06-26T14:36:08;16.43;;;7.50;;
18576;SDS011;9418;52.694;13.294;2023-06-26T14:38:35;12.90;;;7.00;;
18576;SDS011;9418;52.694;13.294;2023-06-26T14:41:01;8.33;;;7.43;;
18576;SDS011;9418;52.694;13.294;2023-06-26T14:43:28;10.03;;;7.43;;
18576;SDS011;9418;52.694;13.294;2023-06-26T14:45:55;10.53;;;8.03;;